createdAt,value
2022-11-30T00:01:17.274Z,100.00
2022-11-30T00:03:43.679Z,100.00
2022-11-30T00:06:13.628Z,100.00
2022-11-30T00:08:40.255Z,100.00
2022-11-30T00:11:12.704Z,100.00
2022-11-30T00:13:39.316Z,100.00
2022-11-30T00:16:06.152Z,100.00
2022-11-30T00:18:32.432Z,100.00
2022-11-30T00:21:00.666Z,100.00
2022-11-30T00:23:34.168Z,100.00
2022-11-30T00:26:06.187Z,100.00
2022-11-30T00:28:33.378Z,100.00
2022-11-30T00:31:01.953Z,100.00
2022-11-30T00:33:28.589Z,100.00
2022-11-30T00:35:59.741Z,100.00
2022-11-30T00:38:28.018Z,100.00
2022-11-30T00:40:55.863Z,99.83
2022-11-30T00:43:22.203Z,100.00
2022-11-30T00:45:48.763Z,100.00
2022-11-30T00:48:14.973Z,100.00
2022-11-30T00:50:41.455Z,100.00
2022-11-30T00:53:07.588Z,99.93
2022-11-30T00:55:34.136Z,100.00
2022-11-30T00:58:00.599Z,100.00
2022-11-30T01:00:28.214Z,99.74
2022-11-30T01:02:55.843Z,99.70
2022-11-30T01:05:22.308Z,100.00
2022-11-30T01:07:48.418Z,99.99
2022-11-30T01:10:15.060Z,100.00
2022-11-30T01:12:41.269Z,100.00
2022-11-30T01:15:08.331Z,100.00
2022-11-30T01:17:34.525Z,100.00
2022-11-30T01:20:00.863Z,100.00
2022-11-30T01:22:27.134Z,100.00
2022-11-30T01:24:53.542Z,100.00
2022-11-30T01:27:19.832Z,100.00
2022-11-30T01:29:46.225Z,99.82
2022-11-30T01:32:12.281Z,100.00
2022-11-30T01:34:38.644Z,100.00
2022-11-30T01:37:04.736Z,100.00
2022-11-30T01:39:31.118Z,100.00
2022-11-30T01:41:57.204Z,100.00
2022-11-30T01:44:26.214Z,100.00
2022-11-30T01:46:57.486Z,100.00
2022-11-30T01:49:28.472Z,100.00
2022-11-30T01:52:20.463Z,100.00
2022-11-30T01:54:55.222Z,100.00
2022-11-30T01:57:44.250Z,100.00
2022-11-30T02:00:13.131Z,100.00
2022-11-30T02:03:02.153Z,100.00
2022-11-30T02:05:30.683Z,100.00
2022-11-30T02:07:56.988Z,100.00
2022-11-30T02:10:29.409Z,100.00
2022-11-30T02:13:10.404Z,100.00
2022-11-30T02:15:50.917Z,100.00
2022-11-30T02:18:27.528Z,100.00
2022-11-30T02:21:13.222Z,100.00
2022-11-30T02:24:00.015Z,100.00
2022-11-30T02:26:38.558Z,100.00
2022-11-30T02:29:26.558Z,100.00
2022-11-30T02:32:04.674Z,100.00
2022-11-30T02:34:34.263Z,100.00
2022-11-30T02:37:02.750Z,100.00
2022-11-30T02:39:28.876Z,100.00
2022-11-30T02:41:55.240Z,100.00
2022-11-30T02:44:22.208Z,100.00
2022-11-30T02:47:07.351Z,100.00
2022-11-30T02:49:48.029Z,100.00
2022-11-30T02:52:15.537Z,100.00
2022-11-30T02:54:41.767Z,100.00
2022-11-30T02:57:08.730Z,100.00
2022-11-30T02:59:35.262Z,100.00
2022-11-30T03:02:01.738Z,100.00
2022-11-30T03:04:27.836Z,100.00
2022-11-30T03:06:54.271Z,100.00
2022-11-30T03:09:20.526Z,100.00
2022-11-30T03:11:46.882Z,100.00
2022-11-30T03:14:12.913Z,100.00
2022-11-30T03:16:39.362Z,100.00
2022-11-30T03:19:06.122Z,100.00
2022-11-30T03:21:32.555Z,100.00
2022-11-30T03:23:58.668Z,100.00
2022-11-30T03:26:25.013Z,100.00
2022-11-30T03:28:51.061Z,100.00
2022-11-30T03:31:17.608Z,100.00
2022-11-30T03:33:43.777Z,100.00
2022-11-30T03:36:11.769Z,100.00
2022-11-30T03:38:38.338Z,100.00
2022-11-30T03:41:08.064Z,100.00
2022-11-30T03:43:34.207Z,100.00
2022-11-30T03:46:00.814Z,100.00
2022-11-30T03:48:27.078Z,100.00
2022-11-30T03:50:53.565Z,100.00
2022-11-30T03:53:21.524Z,100.00
2022-11-30T03:55:52.739Z,100.00
2022-11-30T03:58:18.972Z,100.00
2022-11-30T04:00:45.333Z,100.00
2022-11-30T04:03:11.646Z,100.00
2022-11-30T04:05:38.130Z,100.00
2022-11-30T04:08:04.314Z,100.00
2022-11-30T04:10:30.688Z,100.00
2022-11-30T04:12:56.839Z,100.00
2022-11-30T04:15:23.245Z,100.00
2022-11-30T04:17:49.372Z,100.00
2022-11-30T04:20:16.185Z,100.00
2022-11-30T04:22:42.323Z,100.00
2022-11-30T04:25:08.912Z,100.00
2022-11-30T04:27:35.016Z,100.00
2022-11-30T04:30:01.438Z,100.00
2022-11-30T04:32:27.562Z,100.00
2022-11-30T04:34:54.045Z,100.00
2022-11-30T04:37:20.110Z,100.00
2022-11-30T04:39:46.566Z,100.00
2022-11-30T04:42:12.786Z,100.00
2022-11-30T04:44:39.525Z,100.00
2022-11-30T04:47:05.630Z,100.00
2022-11-30T04:49:32.370Z,100.00
2022-11-30T04:51:58.706Z,100.00
2022-11-30T04:54:25.448Z,100.00
2022-11-30T04:56:51.712Z,100.00
2022-11-30T04:59:18.623Z,100.00
2022-11-30T05:01:44.925Z,100.00
2022-11-30T05:04:11.906Z,100.00
2022-11-30T05:06:38.106Z,100.00
2022-11-30T05:09:04.584Z,100.00
2022-11-30T05:11:30.726Z,100.00
2022-11-30T05:13:57.104Z,100.00
2022-11-30T05:16:23.267Z,100.00
2022-11-30T05:18:49.687Z,100.00
2022-11-30T05:21:17.121Z,100.00
2022-11-30T05:23:43.486Z,100.00
2022-11-30T05:26:09.563Z,100.00
2022-11-30T05:28:36.147Z,100.00
2022-11-30T05:31:05.737Z,100.00
2022-11-30T05:33:32.887Z,100.00
2022-11-30T05:35:58.970Z,100.00
2022-11-30T05:38:25.328Z,100.00
2022-11-30T05:40:51.448Z,100.00
2022-11-30T05:43:18.188Z,100.00
2022-11-30T05:45:44.293Z,100.00
2022-11-30T05:48:10.663Z,100.00
2022-11-30T05:50:36.912Z,100.00
2022-11-30T05:53:03.332Z,100.00
2022-11-30T05:55:30.378Z,100.00
2022-11-30T05:57:56.810Z,100.00
2022-11-30T06:00:23.254Z,100.00
2022-11-30T06:02:55.591Z,100.00
2022-11-30T06:05:21.871Z,100.00
2022-11-30T06:07:48.304Z,100.00
2022-11-30T06:10:14.779Z,100.00
2022-11-30T06:12:41.169Z,100.00
2022-11-30T06:15:08.174Z,100.00
2022-11-30T06:17:37.189Z,100.00
2022-11-30T06:20:07.213Z,100.00
2022-11-30T06:22:33.629Z,100.00
2022-11-30T06:25:00.221Z,100.00
2022-11-30T06:27:30.568Z,100.00
2022-11-30T06:29:57.226Z,100.00
2022-11-30T06:32:23.654Z,100.00
2022-11-30T06:34:49.915Z,100.00
2022-11-30T06:37:17.152Z,100.00
2022-11-30T06:40:05.283Z,100.00
2022-11-30T06:42:30.687Z,100.00
2022-11-30T06:44:56.851Z,100.00
2022-11-30T06:47:23.651Z,100.00
2022-11-30T06:49:49.745Z,100.00
2022-11-30T06:52:16.566Z,100.00
2022-11-30T06:54:42.923Z,100.00
2022-11-30T06:57:09.387Z,100.00
2022-11-30T06:59:41.663Z,100.00
2022-11-30T07:02:17.481Z,100.00
2022-11-30T07:04:45.023Z,100.00
2022-11-30T07:07:11.714Z,100.00
2022-11-30T07:09:37.942Z,100.00
2022-11-30T07:12:05.077Z,100.00
2022-11-30T07:14:31.405Z,100.00
2022-11-30T07:16:57.825Z,100.00
2022-11-30T07:19:24.044Z,100.00
2022-11-30T07:21:50.532Z,100.00
2022-11-30T07:24:35.395Z,100.00
2022-11-30T07:27:03.462Z,100.00
2022-11-30T07:29:29.786Z,100.00
2022-11-30T07:31:56.382Z,100.00
2022-11-30T07:34:22.640Z,100.00
2022-11-30T07:36:49.295Z,100.00
2022-11-30T07:39:15.655Z,100.00
2022-11-30T07:41:42.469Z,100.00
2022-11-30T07:44:11.057Z,100.00
2022-11-30T07:46:38.130Z,100.00
2022-11-30T07:49:06.692Z,100.00
2022-11-30T07:51:33.687Z,100.00
2022-11-30T07:54:00.161Z,100.00
2022-11-30T07:56:27.807Z,100.00
2022-11-30T07:58:59.340Z,100.00
2022-11-30T08:01:28.737Z,100.00
2022-11-30T08:03:55.217Z,100.00
2022-11-30T08:06:24.826Z,100.00
2022-11-30T08:08:53.076Z,100.00
2022-11-30T08:11:24.863Z,100.00
2022-11-30T08:13:51.973Z,100.00
2022-11-30T08:16:24.115Z,100.00
2022-11-30T08:18:50.817Z,100.00
2022-11-30T08:21:19.901Z,100.00
2022-11-30T08:23:52.033Z,100.00
2022-11-30T08:26:21.169Z,100.00
2022-11-30T08:28:49.314Z,100.00
2022-11-30T08:31:38.777Z,100.00
2022-11-30T08:34:07.578Z,100.00
2022-11-30T08:36:34.711Z,100.00
2022-11-30T08:39:04.279Z,100.00
2022-11-30T08:41:31.196Z,100.00
2022-11-30T08:43:57.615Z,100.00
2022-11-30T08:49:26.313Z,100.00
2022-11-30T08:54:45.938Z,100.00
2022-11-30T08:57:18.259Z,100.00
2022-11-30T08:59:44.900Z,100.00
2022-11-30T09:02:13.895Z,100.00
2022-11-30T09:04:41.029Z,100.00
2022-11-30T09:07:08.809Z,100.00
2022-11-30T09:09:36.206Z,100.00
2022-11-30T09:12:02.588Z,100.00
2022-11-30T09:14:28.991Z,100.00
2022-11-30T09:16:55.131Z,100.00
2022-11-30T09:19:21.564Z,100.00
2022-11-30T09:21:51.836Z,100.00
2022-11-30T09:24:20.212Z,100.00
2022-11-30T09:26:46.400Z,100.00
2022-11-30T09:29:12.795Z,100.00
2022-11-30T09:31:38.848Z,100.00
2022-11-30T09:34:05.230Z,100.00
2022-11-30T09:36:33.148Z,100.00
2022-11-30T09:38:59.516Z,100.00
2022-11-30T09:41:40.776Z,100.00
2022-11-30T09:44:35.796Z,100.00
2022-11-30T09:47:21.329Z,100.00
2022-11-30T09:49:48.020Z,100.00
2022-11-30T09:52:25.722Z,100.00
2022-11-30T09:54:52.900Z,100.00
2022-11-30T09:57:29.646Z,100.00
2022-11-30T09:59:59.292Z,100.00
2022-11-30T10:02:31.759Z,100.00
2022-11-30T10:05:00.413Z,100.00
2022-11-30T10:07:43.603Z,100.00
2022-11-30T10:10:35.914Z,100.00
2022-11-30T10:13:21.329Z,100.00
2022-11-30T10:16:06.405Z,100.00
2022-11-30T10:18:38.984Z,100.00
2022-11-30T10:21:33.573Z,100.00
2022-11-30T10:24:05.829Z,100.00
2022-11-30T10:26:34.988Z,100.00
2022-11-30T10:29:16.834Z,100.00
2022-11-30T10:31:46.779Z,100.00
2022-11-30T10:34:22.246Z,100.00
2022-11-30T10:37:16.151Z,100.00
2022-11-30T10:39:55.134Z,100.00
2022-11-30T10:42:32.199Z,100.00
2022-11-30T10:45:19.385Z,100.00
2022-11-30T10:47:53.700Z,100.00
2022-11-30T10:50:23.724Z,100.00
2022-11-30T10:52:56.298Z,100.00
2022-11-30T10:55:39.263Z,100.00
2022-11-30T10:58:20.878Z,100.00
2022-11-30T11:01:00.100Z,100.00
2022-11-30T11:03:27.058Z,100.00
2022-11-30T11:06:14.804Z,100.00
2022-11-30T11:08:44.680Z,100.00
2022-11-30T11:11:36.040Z,100.00
2022-11-30T11:14:32.369Z,100.00
2022-11-30T11:17:21.115Z,100.00
2022-11-30T11:19:49.204Z,100.00
2022-11-30T11:22:19.281Z,100.00
2022-11-30T11:24:48.083Z,100.00
2022-11-30T11:27:22.136Z,100.00
2022-11-30T11:30:00.574Z,100.00
2022-11-30T11:32:27.253Z,100.00
2022-11-30T11:34:54.016Z,100.00
2022-11-30T11:37:30.403Z,100.00
2022-11-30T11:39:59.980Z,100.00
2022-11-30T11:42:30.771Z,100.00
2022-11-30T11:44:59.175Z,100.00
2022-11-30T11:47:27.190Z,100.00
2022-11-30T11:53:22.333Z,100.00
2022-11-30T11:55:57.985Z,100.00
2022-11-30T11:58:34.706Z,100.00
2022-11-30T12:01:38.266Z,100.00
2022-11-30T12:03:55.564Z,100.00
2022-11-30T12:06:23.135Z,100.00
2022-11-30T12:08:58.999Z,100.00
2022-11-30T12:11:32.512Z,100.00
2022-11-30T12:14:01.069Z,100.00
2022-11-30T12:16:30.916Z,100.00
2022-11-30T12:19:15.083Z,100.00
2022-11-30T12:22:03.183Z,100.00
2022-11-30T12:24:38.535Z,100.00
2022-11-30T12:27:54.587Z,100.00
2022-11-30T12:31:10.985Z,100.00
2022-11-30T12:33:43.513Z,100.00
2022-11-30T12:36:16.202Z,100.00
2022-11-30T12:39:04.919Z,100.00
2022-11-30T12:41:42.197Z,100.00
2022-11-30T12:44:29.064Z,100.00
2022-11-30T12:47:36.182Z,100.00
2022-11-30T12:50:41.224Z,100.00
2022-11-30T12:53:25.084Z,100.00
2022-11-30T12:56:16.542Z,100.00
2022-11-30T12:58:50.197Z,100.00
2022-11-30T13:01:36.300Z,100.00
2022-11-30T13:04:28.760Z,100.00
2022-11-30T13:07:12.315Z,100.00
2022-11-30T13:09:48.573Z,100.00
2022-11-30T13:12:36.607Z,100.00
2022-11-30T13:15:09.811Z,100.00
2022-11-30T13:17:42.515Z,100.00
2022-11-30T13:20:30.741Z,100.00
2022-11-30T13:23:33.336Z,100.00
2022-11-30T13:26:24.561Z,100.00
2022-11-30T13:29:15.574Z,100.00
2022-11-30T13:31:53.281Z,100.00
2022-11-30T13:34:26.555Z,100.00
2022-11-30T13:37:28.061Z,100.00
2022-11-30T13:39:57.713Z,100.00
2022-11-30T13:42:40.486Z,100.00
2022-11-30T13:45:13.057Z,100.00
2022-11-30T13:47:52.162Z,100.00
2022-11-30T13:50:30.778Z,100.00
2022-11-30T13:52:56.956Z,100.00
2022-11-30T13:55:35.781Z,100.00
2022-11-30T13:58:06.683Z,100.00
2022-11-30T14:00:33.113Z,100.00
2022-11-30T14:03:25.232Z,100.00
2022-11-30T14:05:57.233Z,100.00
2022-11-30T14:08:23.400Z,100.00
2022-11-30T14:10:50.788Z,100.00
2022-11-30T14:13:19.355Z,100.00
2022-11-30T14:15:45.903Z,100.00
2022-11-30T14:18:18.188Z,100.00
2022-11-30T14:20:49.940Z,100.00
2022-11-30T14:23:52.898Z,100.00
2022-11-30T14:26:37.147Z,100.00
2022-11-30T14:29:06.928Z,100.00
2022-11-30T14:31:42.555Z,100.00
2022-11-30T14:34:26.612Z,100.00
2022-11-30T14:37:25.175Z,100.00
2022-11-30T14:39:56.218Z,100.00
2022-11-30T14:42:24.408Z,100.00
2022-11-30T14:44:50.943Z,100.00
2022-11-30T14:47:30.537Z,100.00
2022-11-30T14:50:00.998Z,100.00
2022-11-30T14:52:43.662Z,100.00
2022-11-30T14:55:28.529Z,100.00
2022-11-30T14:58:20.081Z,100.00
2022-11-30T15:00:47.623Z,100.00
2022-11-30T15:03:24.545Z,100.00
2022-11-30T15:05:54.292Z,100.00
2022-11-30T15:08:23.527Z,100.00
2022-11-30T15:10:50.409Z,100.00
2022-11-30T15:13:19.253Z,100.00
2022-11-30T15:15:53.940Z,100.00
2022-11-30T15:18:23.288Z,100.00
2022-11-30T15:21:03.480Z,100.00
2022-11-30T15:23:30.613Z,100.00
2022-11-30T15:26:06.128Z,100.00
2022-11-30T15:28:38.756Z,100.00
2022-11-30T15:31:10.170Z,100.00
2022-11-30T15:33:41.984Z,100.00
2022-11-30T15:36:32.973Z,100.00
2022-11-30T15:38:55.927Z,100.00
2022-11-30T15:41:24.789Z,100.00
2022-11-30T15:43:53.842Z,100.00
2022-11-30T15:46:44.582Z,100.00
2022-11-30T15:49:28.645Z,100.00
2022-11-30T15:52:16.280Z,100.00
2022-11-30T15:54:46.095Z,100.00
2022-11-30T15:57:13.511Z,100.00
2022-11-30T15:59:40.443Z,100.00
2022-11-30T16:02:27.255Z,100.00
2022-11-30T16:04:57.652Z,100.00
2022-11-30T16:07:28.044Z,100.00
2022-11-30T16:10:21.759Z,100.00
2022-11-30T16:12:50.564Z,100.00
2022-11-30T16:15:30.066Z,100.00
2022-11-30T16:18:11.710Z,100.00
2022-11-30T16:20:40.722Z,100.00
2022-11-30T16:23:13.752Z,100.00
2022-11-30T16:25:41.967Z,100.00
2022-11-30T16:28:09.637Z,100.00
2022-11-30T16:30:38.394Z,100.00
2022-11-30T16:33:07.699Z,100.00
2022-11-30T16:35:48.087Z,100.00
2022-11-30T16:38:14.468Z,100.00
2022-11-30T16:40:41.166Z,100.00
2022-11-30T16:43:10.996Z,100.00
2022-11-30T16:45:39.494Z,99.93
2022-11-30T16:48:10.024Z,100.00
2022-11-30T16:50:38.219Z,100.00
2022-11-30T16:53:04.966Z,100.00
2022-11-30T16:55:34.372Z,100.00
2022-11-30T16:58:01.218Z,99.62
2022-11-30T17:00:28.156Z,100.00
2022-11-30T17:02:54.454Z,100.00
2022-11-30T17:05:21.093Z,100.00
2022-11-30T17:07:47.700Z,100.00
2022-11-30T17:10:14.309Z,100.00
2022-11-30T17:12:41.283Z,100.00
2022-11-30T17:15:18.748Z,99.91
2022-11-30T17:17:45.060Z,100.00
2022-11-30T17:20:13.585Z,99.76
2022-11-30T17:22:40.662Z,100.00
2022-11-30T17:25:12.657Z,100.00
2022-11-30T17:27:39.013Z,99.12
2022-11-30T17:30:06.382Z,99.70
2022-11-30T17:32:33.159Z,99.47
2022-11-30T17:34:59.918Z,99.24
2022-11-30T17:37:26.509Z,99.24
2022-11-30T17:39:53.204Z,99.16
2022-11-30T17:42:19.507Z,100.00
2022-11-30T17:44:47.543Z,99.66
2022-11-30T17:47:13.927Z,100.00
2022-11-30T17:49:43.839Z,99.50
2022-11-30T17:52:10.171Z,99.90
2022-11-30T17:54:36.694Z,100.00
2022-11-30T17:57:03.446Z,100.00
2022-11-30T17:59:30.012Z,99.70
2022-11-30T18:01:56.668Z,99.64
2022-11-30T18:04:23.388Z,99.03
2022-11-30T18:06:49.783Z,99.04
2022-11-30T18:09:16.628Z,99.64
2022-11-30T18:11:43.067Z,99.31
2022-11-30T18:14:10.057Z,99.08
2022-11-30T18:16:36.613Z,99.12
2022-11-30T18:19:11.801Z,100.00
2022-11-30T18:21:39.648Z,100.00
2022-11-30T18:24:06.855Z,100.00
2022-11-30T18:26:34.992Z,100.00
2022-11-30T18:29:06.536Z,100.00
2022-11-30T18:31:35.952Z,100.00
2022-11-30T18:34:05.662Z,100.00
2022-11-30T18:36:33.388Z,100.00
2022-11-30T18:39:00.375Z,100.00
2022-11-30T18:41:29.434Z,100.00
2022-11-30T18:43:57.282Z,100.00
2022-11-30T18:46:26.017Z,100.00
2022-11-30T18:48:55.674Z,100.00
2022-11-30T18:51:25.432Z,99.73
2022-11-30T18:53:57.853Z,100.00
2022-11-30T18:56:25.623Z,99.48
2022-11-30T18:59:01.213Z,98.56
2022-11-30T19:01:28.653Z,99.05
2022-11-30T19:03:57.982Z,98.29
2022-11-30T19:06:27.707Z,98.23
2022-11-30T19:08:57.953Z,97.44
2022-11-30T19:11:25.226Z,97.31
2022-11-30T19:13:56.857Z,97.25
2022-11-30T19:16:24.711Z,97.68
2022-11-30T19:18:56.605Z,97.71
2022-11-30T19:21:23.566Z,97.03
2022-11-30T19:23:50.161Z,97.69
2022-11-30T19:26:17.034Z,96.40
2022-11-30T19:28:44.899Z,96.93
2022-11-30T19:31:14.414Z,97.45
2022-11-30T19:33:42.949Z,96.92
2022-11-30T19:36:18.273Z,97.26
2022-11-30T19:38:45.308Z,97.45
2022-11-30T19:41:14.147Z,97.40
2022-11-30T19:43:40.904Z,97.69
2022-11-30T19:46:15.383Z,97.66
2022-11-30T19:48:43.684Z,97.76
2022-11-30T19:51:18.313Z,98.31
2022-11-30T19:53:45.349Z,97.88
2022-11-30T19:56:14.764Z,98.35
2022-11-30T19:58:43.376Z,98.26
2022-11-30T20:01:19.262Z,97.75
2022-11-30T20:03:45.893Z,97.16
2022-11-30T20:06:12.298Z,97.00
2022-11-30T20:08:41.417Z,97.57
2022-11-30T20:11:09.883Z,97.60
2022-11-30T20:13:37.222Z,97.03
2022-11-30T20:16:22.431Z,96.59
2022-11-30T20:19:00.473Z,96.50
2022-11-30T20:21:32.746Z,96.31
2022-11-30T20:24:03.721Z,96.18
2022-11-30T20:26:41.107Z,96.53
2022-11-30T20:29:12.473Z,97.05
2022-11-30T20:31:39.695Z,96.34
2022-11-30T20:34:07.552Z,96.53
2022-11-30T20:36:34.599Z,97.95
2022-11-30T20:39:02.257Z,98.15
2022-11-30T20:41:28.710Z,98.43
2022-11-30T20:43:56.261Z,98.61
2022-11-30T20:46:27.083Z,98.02
2022-11-30T20:48:54.387Z,97.78
2022-11-30T20:51:32.027Z,97.51
2022-11-30T20:54:01.662Z,97.83
2022-11-30T20:56:28.376Z,97.84
2022-11-30T20:58:55.086Z,98.30
2022-11-30T21:01:22.428Z,97.63
2022-11-30T21:03:49.437Z,98.28
2022-11-30T21:06:15.812Z,97.86
2022-11-30T21:08:43.036Z,98.16
2022-11-30T21:11:15.636Z,97.46
2022-11-30T21:13:43.734Z,97.30
2022-11-30T21:16:13.847Z,97.85
2022-11-30T21:18:43.309Z,97.83
2022-11-30T21:21:15.716Z,98.45
2022-11-30T21:23:43.295Z,97.91
2022-11-30T21:26:36.932Z,97.30
2022-11-30T21:29:09.464Z,97.47
2022-11-30T21:31:35.699Z,96.98
2022-11-30T21:34:03.300Z,98.42
2022-11-30T21:36:29.672Z,97.00
2022-11-30T21:39:05.067Z,97.08
2022-11-30T21:41:33.186Z,96.81
2022-11-30T21:44:00.009Z,96.36
2022-11-30T21:46:26.282Z,97.28
2022-11-30T21:48:53.028Z,96.52
2022-11-30T21:51:22.116Z,96.55
2022-11-30T21:53:52.519Z,96.74
2022-11-30T21:56:22.131Z,96.24
2022-11-30T21:58:49.832Z,96.51
2022-11-30T22:01:25.962Z,96.58
2022-11-30T22:03:55.703Z,95.66
2022-11-30T22:06:24.319Z,95.67
2022-11-30T22:08:51.101Z,95.08
2022-11-30T22:11:22.347Z,95.82
2022-11-30T22:13:52.956Z,95.53
2022-11-30T22:16:21.096Z,95.46
2022-11-30T22:18:50.830Z,95.10
2022-11-30T22:21:19.349Z,95.09
2022-11-30T22:23:51.955Z,94.64
2022-11-30T22:26:24.319Z,95.00
2022-11-30T22:28:54.037Z,95.83
2022-11-30T22:31:22.343Z,95.16
2022-11-30T22:33:49.455Z,95.52
2022-11-30T22:36:18.922Z,95.62
2022-11-30T22:38:46.235Z,95.47
2022-11-30T22:41:15.196Z,94.82
2022-11-30T22:43:42.702Z,95.16
2022-11-30T22:46:15.524Z,95.00
2022-11-30T22:48:42.866Z,94.85
2022-11-30T22:51:12.025Z,95.35
2022-11-30T22:53:39.599Z,95.05
2022-11-30T22:56:24.030Z,95.18
2022-11-30T22:58:53.469Z,95.01
2022-11-30T23:01:24.641Z,94.48
2022-11-30T23:03:55.659Z,94.88
2022-11-30T23:06:24.767Z,94.45
2022-11-30T23:08:51.679Z,94.74
2022-11-30T23:11:23.128Z,93.82
2022-11-30T23:13:50.182Z,93.92
2022-11-30T23:16:16.891Z,94.20
2022-11-30T23:18:53.888Z,94.27
2022-11-30T23:21:25.801Z,94.35
2022-11-30T23:23:54.702Z,93.71
2022-11-30T23:26:23.572Z,94.52
2022-11-30T23:28:52.111Z,93.75
2022-11-30T23:31:34.036Z,93.55
2022-11-30T23:34:07.933Z,93.37
2022-11-30T23:36:34.904Z,93.56
2022-11-30T23:39:09.401Z,93.45
2022-11-30T23:41:35.809Z,93.37
2022-11-30T23:44:02.290Z,93.49
2022-11-30T23:46:28.971Z,93.84
2022-11-30T23:48:55.989Z,93.45
2022-11-30T23:51:22.947Z,93.79
2022-11-30T23:53:49.321Z,93.70
2022-11-30T23:56:17.752Z,94.20
2022-11-30T23:58:44.517Z,93.95
